Time,TemperatureF,DewpointF,PressureIn,WindDirection,WindDirectionDegrees,WindSpeedMPH,WindSpeedGustMPH,Humidity,HourlyPrecipIn,Conditions,Clouds,dailyrainin,SoftwareType,DateUTC
2013-07-30 00:13:00,79.2,73.0,30.82,SSE,153,3.0,-999.0,82,-99.99,,,0.00,weatherlink.com 1.10,2013-07-30 05:13:00,
2013-07-30 00:28:00,78.7,73.0,30.81,SSE,165,4.0,-999.0,83,-99.99,,,0.00,weatherlink.com 1.10,2013-07-30 05:28:00,
2013-07-30 00:43:00,78.5,73.0,30.81,South,173,4.0,-999.0,84,-99.99,,,0.00,weatherlink.com 1.10,2013-07-30 05:43:00,
2013-07-30 00:58:00,78.0,73.0,30.81,South,171,4.0,-999.0,85,-99.99,,,0.00,weatherlink.com 1.10,2013-07-30 05:58:00,
2013-07-30 01:13:00,77.8,73.0,30.80,SSE,155,6.0,-999.0,85,-99.99,,,0.00,weatherlink.com 1.10,2013-07-30 06:13:00,
2013-07-30 01:28:00,77.5,73.0,30.80,South,182,3.0,-999.0,86,-99.99,,,0.00,weatherlink.com 1.10,2013-07-30 06:28:00,
2013-07-30 01:43:00,77.4,73.0,30.80,SE,136,3.0,-999.0,87,-99.99,,,0.00,weatherlink.com 1.10,2013-07-30 06:43:00,
2013-07-30 01:58:00,77.3,74.0,30.81,South,176,3.0,-999.0,88,-99.99,,,0.00,weatherlink.com 1.10,2013-07-30 06:58:00,
2013-07-30 02:13:00,77.2,74.0,30.80,South,171,2.0,-999.0,88,-99.99,,,0.00,weatherlink.com 1.10,2013-07-30 07:13:00,
2013-07-30 02:28:00,76.9,74.0,30.80,SSE,168,3.0,-999.0,89,-99.99,,,0.00,weatherlink.com 1.10,2013-07-30 07:28:00,
2013-07-30 02:43:00,76.8,73.0,30.80,South,172,3.0,-999.0,89,-99.99,,,0.00,weatherlink.com 1.10,2013-07-30 07:43:00,
2013-07-30 02:58:00,76.7,74.0,30.80,South,176,5.0,-999.0,90,-99.99,,,0.00,weatherlink.com 1.10,2013-07-30 07:58:00,
2013-07-30 03:13:00,76.9,74.0,30.80,South,175,3.0,-999.0,90,-99.99,,,0.00,weatherlink.com 1.10,2013-07-30 08:13:00,
2013-07-30 03:28:00,77.1,74.0,30.80,South,173,4.0,-999.0,90,-99.99,,,0.00,weatherlink.com 1.10,2013-07-30 08:28:00,
2013-07-30 03:43:00,77.1,74.0,30.80,South,180,6.0,-999.0,90,-99.99,,,0.00,weatherlink.com 1.10,2013-07-30 08:43:00,
2013-07-30 03:58:00,76.9,74.0,30.80,SSE,159,4.0,-999.0,90,-99.99,,,0.00,weatherlink.com 1.10,2013-07-30 08:58:00,
2013-07-30 04:13:00,76.9,74.0,30.81,South,173,4.0,-999.0,90,-99.99,,,0.00,weatherlink.com 1.10,2013-07-30 09:13:00,
2013-07-30 04:28:00,76.7,74.0,30.80,SSE,167,4.0,-999.0,90,-99.99,,,0.00,weatherlink.com 1.10,2013-07-30 09:28:00,
2013-07-30 04:43:00,76.6,74.0,30.81,South,175,3.0,-999.0,91,-99.99,,,0.00,weatherlink.com 1.10,2013-07-30 09:43:00,
2013-07-30 04:58:00,76.5,74.0,30.81,SSE,165,4.0,-999.0,91,-99.99,,,0.00,weatherlink.com 1.10,2013-07-30 09:58:00,
2013-07-30 05:13:00,76.4,74.0,30.82,SSE,165,4.0,-999.0,91,-99.99,,,0.00,weatherlink.com 1.10,2013-07-30 10:13:00,
2013-07-30 05:28:00,76.2,74.0,30.82,South,172,3.0,-999.0,91,-99.99,,,0.00,weatherlink.com 1.10,2013-07-30 10:28:00,
2013-07-30 05:43:00,76.1,73.0,30.82,South,173,3.0,-999.0,91,-99.99,,,0.00,weatherlink.com 1.10,2013-07-30 10:43:00,
2013-07-30 05:58:00,75.9,74.0,30.81,SSE,167,5.0,-999.0,92,-99.99,,,0.00,weatherlink.com 1.10,2013-07-30 10:58:00,
2013-07-30 06:13:00,76.0,74.0,30.82,South,179,4.0,-999.0,92,-99.99,,,0.00,weatherlink.com 1.10,2013-07-30 11:13:00,
2013-07-30 06:28:00,76.3,74.0,30.83,SSE,162,5.0,-999.0,92,-99.99,,,0.00,weatherlink.com 1.10,2013-07-30 11:28:00,
2013-07-30 06:43:00,76.4,74.0,30.83,SSE,162,4.0,-999.0,92,-99.99,,,0.00,weatherlink.com 1.10,2013-07-30 11:43:00,
2013-07-30 06:58:00,76.6,74.0,30.84,South,182,5.0,-999.0,92,-99.99,,,0.00,weatherlink.com 1.10,2013-07-30 11:58:00,
2013-07-30 07:13:00,76.9,75.0,30.84,South,171,4.0,-999.0,92,-99.99,,,0.00,weatherlink.com 1.10,2013-07-30 12:13:00,
2013-07-30 07:28:00,77.1,75.0,30.85,SSW,194,4.0,-999.0,92,-99.99,,,0.00,weatherlink.com 1.10,2013-07-30 12:28:00,
2013-07-30 07:43:00,77.3,75.0,30.85,SSE,161,3.0,-999.0,91,-99.99,,,0.00,weatherlink.com 1.10,2013-07-30 12:43:00,
2013-07-30 07:58:00,78.0,75.0,30.85,South,175,6.0,-999.0,91,-99.99,,,0.00,weatherlink.com 1.10,2013-07-30 12:58:00,
2013-07-30 08:13:00,78.5,75.0,30.85,SSE,156,6.0,-999.0,90,-99.99,,,0.00,weatherlink.com 1.10,2013-07-30 13:13:00,
2013-07-30 08:28:00,78.9,76.0,30.86,South,180,2.0,-999.0,89,-99.99,,,0.00,weatherlink.com 1.10,2013-07-30 13:28:00,
2013-07-30 08:43:00,79.3,76.0,30.86,South,170,5.0,-999.0,88,-99.99,,,0.00,weatherlink.com 1.10,2013-07-30 13:43:00,
2013-07-30 08:58:00,80.4,76.0,30.87,SSE,164,4.0,-999.0,86,-99.99,,,0.00,weatherlink.com 1.10,2013-07-30 13:58:00,
2013-07-30 09:14:00,81.2,76.0,30.87,South,181,6.0,-999.0,83,-99.99,,,0.00,weatherlink.com 1.10,2013-07-30 14:14:00,
2013-07-30 09:29:00,81.8,76.0,30.87,SSE,167,10.0,-999.0,82,-99.99,,,0.00,weatherlink.com 1.10,2013-07-30 14:29:00,
2013-07-30 09:44:00,82.5,76.0,30.87,South,174,5.0,-999.0,80,-99.99,,,0.00,weatherlink.com 1.10,2013-07-30 14:44:00,
2013-07-30 09:59:00,83.6,75.0,30.87,SSW,210,7.0,-999.0,76,-99.99,,,0.00,weatherlink.com 1.10,2013-07-30 14:59:00,
2013-07-30 10:14:00,84.7,75.0,30.87,South,182,9.0,-999.0,73,-99.99,,,0.00,weatherlink.com 1.10,2013-07-30 15:14:00,
2013-07-30 10:29:00,85.9,76.0,30.87,SSE,151,9.0,-999.0,71,-99.99,,,0.00,weatherlink.com 1.10,2013-07-30 15:29:00,
2013-07-30 10:44:00,86.3,75.0,30.86,SSW,195,7.0,-999.0,69,-99.99,,,0.00,weatherlink.com 1.10,2013-07-30 15:44:00,
2013-07-30 10:59:00,87.3,75.0,30.86,SSE,155,4.0,-999.0,67,-99.99,,,0.00,weatherlink.com 1.10,2013-07-30 15:59:00,
2013-07-30 11:14:00,87.8,75.0,30.85,SSE,156,5.0,-999.0,65,-99.99,,,0.00,weatherlink.com 1.10,2013-07-30 16:14:00,
2013-07-30 11:29:00,89.3,75.0,30.86,South,187,3.0,-999.0,63,-99.99,,,0.00,weatherlink.com 1.10,2013-07-30 16:29:00,
2013-07-30 11:44:00,89.4,75.0,30.86,SSE,163,4.0,-999.0,62,-99.99,,,0.00,weatherlink.com 1.10,2013-07-30 16:44:00,
2013-07-30 11:59:00,91.0,74.0,30.85,SSE,163,7.0,-999.0,58,-99.99,,,0.00,weatherlink.com 1.10,2013-07-30 16:59:00,
2013-07-30 12:14:00,92.2,74.0,30.84,SSE,154,10.0,-999.0,55,-99.99,,,0.00,weatherlink.com 1.10,2013-07-30 17:14:00,
2013-07-30 12:29:00,93.5,73.0,30.84,SSE,163,10.0,-999.0,51,-99.99,,,0.00,weatherlink.com 1.10,2013-07-30 17:29:00,
2013-07-30 12:44:00,93.6,73.0,30.83,SSE,157,9.0,-999.0,52,-99.99,,,0.00,weatherlink.com 1.10,2013-07-30 17:44:00,
2013-07-30 12:59:00,93.9,71.0,30.82,South,188,16.0,-999.0,48,-99.99,,,0.00,weatherlink.com 1.10,2013-07-30 17:59:00,
2013-07-30 13:14:00,95.5,72.0,30.82,SSE,148,6.0,-999.0,46,-99.99,,,0.00,weatherlink.com 1.10,2013-07-30 18:14:00,
2013-07-30 13:29:00,96.1,70.0,30.81,SSE,166,11.0,-999.0,43,-99.99,,,0.00,weatherlink.com 1.10,2013-07-30 18:29:00,
2013-07-30 13:44:00,95.9,69.0,30.80,SSE,167,10.0,-999.0,42,-99.99,,,0.00,weatherlink.com 1.10,2013-07-30 18:44:00,
2013-07-30 13:59:00,97.3,71.0,30.80,South,170,15.0,-999.0,42,-99.99,,,0.00,weatherlink.com 1.10,2013-07-30 18:59:00,
2013-07-30 14:14:00,98.3,69.0,30.79,SSE,150,13.0,-999.0,38,-99.99,,,0.00,weatherlink.com 1.10,2013-07-30 19:14:00,
2013-07-30 14:29:00,98.2,68.0,30.79,SSE,157,6.0,-999.0,37,-99.99,,,0.00,weatherlink.com 1.10,2013-07-30 19:29:00,
2013-07-30 14:45:00,98.7,70.0,30.78,SSE,166,2.0,-999.0,39,-99.99,,,0.00,weatherlink.com 1.10,2013-07-30 19:45:00,
2013-07-30 15:00:00,99.2,70.0,30.78,South,177,7.0,-999.0,39,-99.99,,,0.00,weatherlink.com 1.10,2013-07-30 20:00:00,
2013-07-30 15:15:00,98.5,70.0,30.77,South,177,8.0,-999.0,39,-99.99,,,0.00,weatherlink.com 1.10,2013-07-30 20:15:00,
2013-07-30 15:30:00,99.4,70.0,30.77,SSW,202,6.0,-999.0,38,-99.99,,,0.00,weatherlink.com 1.10,2013-07-30 20:30:00,
2013-07-30 15:45:00,99.4,69.0,30.77,SSE,166,12.0,-999.0,37,-99.99,,,0.00,weatherlink.com 1.10,2013-07-30 20:45:00,
2013-07-30 16:00:00,99.8,68.0,30.76,South,170,5.0,-999.0,35,-99.99,,,0.00,weatherlink.com 1.10,2013-07-30 21:00:00,
2013-07-30 16:15:00,100.5,67.0,30.75,South,172,12.0,-999.0,33,-99.99,,,0.00,weatherlink.com 1.10,2013-07-30 21:15:00,
2013-07-30 16:30:00,100.9,67.0,30.75,South,191,11.0,-999.0,33,-99.99,,,0.00,weatherlink.com 1.10,2013-07-30 21:30:00,
2013-07-30 16:44:00,100.1,65.0,30.75,South,190,7.0,-999.0,32,-99.99,,,0.00,weatherlink.com 1.10,2013-07-30 21:44:00,
2013-07-30 16:59:00,100.6,64.0,30.75,ESE,122,6.0,-999.0,30,-99.99,,,0.00,weatherlink.com 1.10,2013-07-30 21:59:00,
2013-07-30 17:15:00,100.2,63.0,30.74,SSW,205,9.0,-999.0,29,-99.99,,,0.00,weatherlink.com 1.10,2013-07-30 22:15:00,
2013-07-30 17:30:00,100.3,64.0,30.74,SSE,150,5.0,-999.0,30,-99.99,,,0.00,weatherlink.com 1.10,2013-07-30 22:30:00,
2013-07-30 17:44:00,99.7,62.0,30.74,SSE,161,7.0,-999.0,29,-99.99,,,0.00,weatherlink.com 1.10,2013-07-30 22:44:00,
2013-07-30 17:59:00,99.5,63.0,30.73,South,187,6.0,-999.0,30,-99.99,,,0.00,weatherlink.com 1.10,2013-07-30 22:59:00,
2013-07-30 18:15:00,98.8,64.0,30.73,SSW,194,12.0,-999.0,32,-99.99,,,0.00,weatherlink.com 1.10,2013-07-30 23:15:00,
2013-07-30 18:30:00,98.3,64.0,30.73,South,179,7.0,-999.0,32,-99.99,,,0.00,weatherlink.com 1.10,2013-07-30 23:30:00,
2013-07-30 18:45:00,97.6,63.0,30.73,SSW,193,9.0,-999.0,32,-99.99,,,0.00,weatherlink.com 1.10,2013-07-30 23:45:00,
2013-07-30 19:00:00,96.8,62.0,30.73,SSE,163,5.0,-999.0,32,-99.99,,,0.00,weatherlink.com 1.10,2013-07-31 00:00:00,
2013-07-30 19:15:00,95.5,61.0,30.73,SSE,155,6.0,-999.0,32,-99.99,,,0.00,weatherlink.com 1.10,2013-07-31 00:15:00,
2013-07-30 19:30:00,94.6,61.0,30.74,South,180,10.0,-999.0,33,-99.99,,,0.00,weatherlink.com 1.10,2013-07-31 00:30:00,
2013-07-30 19:44:00,93.9,62.0,30.74,SSW,213,10.0,-999.0,34,-99.99,,,0.00,weatherlink.com 1.10,2013-07-31 00:44:00,
2013-07-30 19:59:00,92.2,65.0,30.75,SSE,159,6.0,-999.0,40,-99.99,,,0.00,weatherlink.com 1.10,2013-07-31 00:59:00,
2013-07-30 20:15:00,91.0,66.0,30.75,SSE,165,5.0,-999.0,44,-99.99,,,0.00,weatherlink.com 1.10,2013-07-31 01:15:00,
2013-07-30 20:30:00,89.7,66.0,30.75,South,175,4.0,-999.0,46,-99.99,,,0.00,weatherlink.com 1.10,2013-07-31 01:30:00,
2013-07-30 20:45:00,88.8,65.0,30.75,South,180,3.0,-999.0,46,-99.99,,,0.00,weatherlink.com 1.10,2013-07-31 01:45:00,
2013-07-30 21:00:00,87.2,68.0,30.76,South,169,4.0,-999.0,53,-99.99,,,0.00,weatherlink.com 1.10,2013-07-31 02:00:00,
2013-07-30 21:15:00,86.7,68.0,30.76,SSE,166,14.0,-999.0,53,-99.99,,,0.00,weatherlink.com 1.10,2013-07-31 02:15:00,
2013-07-30 21:30:00,86.2,69.0,30.77,SSE,165,10.0,-999.0,56,-99.99,,,0.00,weatherlink.com 1.10,2013-07-31 02:30:00,
2013-07-30 21:44:00,85.7,69.0,30.78,SSE,160,5.0,-999.0,57,-99.99,,,0.00,weatherlink.com 1.10,2013-07-31 02:44:00,
2013-07-30 21:59:00,84.7,69.0,30.78,SSW,196,5.0,-999.0,60,-99.99,,,0.00,weatherlink.com 1.10,2013-07-31 02:59:00,
2013-07-30 22:14:00,83.8,69.0,30.79,SSW,202,8.0,-999.0,62,-99.99,,,0.00,weatherlink.com 1.10,2013-07-31 03:14:00,
2013-07-30 22:29:00,82.8,70.0,30.79,SSE,162,4.0,-999.0,65,-99.99,,,0.00,weatherlink.com 1.10,2013-07-31 03:29:00,
2013-07-30 22:45:00,82.4,70.0,30.80,SSE,163,4.0,-999.0,66,-99.99,,,0.00,weatherlink.com 1.10,2013-07-31 03:45:00,
2013-07-30 23:00:00,81.1,70.0,30.80,South,174,4.0,-999.0,70,-99.99,,,0.00,weatherlink.com 1.10,2013-07-31 04:00:00,
2013-07-30 23:15:00,80.6,71.0,30.81,South,170,6.0,-999.0,72,-99.99,,,0.00,weatherlink.com 1.10,2013-07-31 04:15:00,
2013-07-30 23:30:00,80.0,71.0,30.80,SSE,162,5.0,-999.0,74,-99.99,,,0.00,weatherlink.com 1.10,2013-07-31 04:30:00,
2013-07-30 23:46:00,79.5,71.0,30.81,SSE,158,5.0,-999.0,76,-99.99,,,0.00,weatherlink.com 1.10,2013-07-31 04:46:00,